Time;durP1;ratioP1;P1;durP2;ratioP2;P2;SDS_P1;SDS_P2;PMS_P1;PMS_P2;Temp;Humidity;BMP_temperature;BMP_pressure;BME280_temperature;BME280_humidity;BME280_pressure;Samples;Min_cycle;Max_cycle;Signal;HPM_P1;HPM_P2
2022/10/10 00:02:17;;;;;;;12.25;3.40;;;;;;;15.73;100.00;99935.59;10378560;28;20124;-72
2022/10/10 00:07:19;;;;;;;13.05;4.07;;;;;;;16.20;100.00;100025.47;10377356;28;20069;-72
2022/10/10 00:12:20;;;;;;;16.73;4.03;;;;;;;16.26;100.00;100031.84;10377323;28;20048;-72
2022/10/10 00:17:20;;;;;;;15.95;4.13;;;;;;;16.34;100.00;100050.38;10376929;28;20387;-72
2022/10/10 00:22:21;;;;;;;12.65;3.30;;;;;;;16.09;100.00;100015.41;10377567;28;20393;-72
2022/10/10 00:27:22;;;;;;;22.23;4.35;;;;;;;16.32;100.00;100047.06;10377533;28;20547;-72
2022/10/10 00:32:24;;;;;;;18.42;4.05;;;;;;;16.14;100.00;100026.31;10376350;28;20528;-72
2022/10/10 00:37:25;;;;;;;19.77;4.18;;;;;;;15.62;100.00;99961.16;10388082;28;20053;-72
2022/10/10 00:42:26;;;;;;;15.52;3.88;;;;;;;16.03;100.00;100044.91;10390971;28;20052;-73
2022/10/10 00:47:27;;;;;;;21.92;3.60;;;;;;;14.57;100.00;99824.69;10376565;28;20037;-72
2022/10/10 00:52:28;;;;;;;12.13;3.17;;;;;;;15.75;100.00;100036.13;10406090;28;20037;-72
2022/10/10 00:57:28;;;;;;;14.02;3.78;;;;;;;15.01;100.00;99937.38;10415406;28;20099;-72
2022/10/10 01:02:29;;;;;;;11.60;3.65;;;;;;;15.66;100.00;100055.28;10416562;28;20114;-73
2022/10/10 01:07:32;;;;;;;12.32;4.10;;;;;;;15.21;100.00;99994.38;10416790;28;20397;-72
2022/10/10 01:12:57;;;;;;;18.48;4.63;;;;;;;15.21;100.00;99980.16;10383311;28;20417;-73
2022/10/10 01:18:29;;;;;;;17.52;3.60;;;;;;;15.77;100.00;100069.94;10375326;28;20048;-73
2022/10/10 01:23:41;;;;;;;16.05;3.67;;;;;;;15.76;100.00;100066.41;10374227;28;20100;-73
2022/10/10 01:28:54;;;;;;;12.77;3.40;;;;;;;15.75;100.00;100067.44;10374345;28;20076;-73
2022/10/10 01:34:12;;;;;;;16.85;3.80;;;;;;;15.73;100.00;100072.16;10374461;28;20164;-73
2022/10/10 01:39:22;;;;;;;11.20;4.05;;;;;;;15.73;100.00;100086.41;10374141;28;20156;-72
2022/10/10 01:44:23;;;;;;;17.13;5.50;;;;;;;15.79;100.00;100078.56;10373289;28;20119;-72
2022/10/10 01:49:31;;;;;;;32.53;8.60;;;;;;;15.87;100.00;100089.88;10374416;28;20516;-72
2022/10/10 01:54:32;;;;;;;16.58;5.13;;;;;;;15.91;100.00;100088.44;10374311;28;20045;-72
2022/10/10 01:59:47;;;;;;;18.35;4.57;;;;;;;15.98;100.00;100088.41;10373010;28;20048;-73
2022/10/10 02:05:05;;;;;;;20.23;5.68;;;;;;;16.01;100.00;100084.50;10371945;28;20042;-72
2022/10/10 02:10:07;;;;;;;20.15;5.75;;;;;;;15.88;100.00;100083.47;10373789;28;20037;-72
2022/10/10 02:15:15;;;;;;;17.27;6.13;;;;;;;15.97;100.00;100092.97;10372941;28;20045;-73
2022/10/10 02:20:20;;;;;;;17.27;6.57;;;;;;;16.03;100.00;100095.81;10373838;28;20053;-73
2022/10/10 02:25:28;;;;;;;17.92;5.53;;;;;;;15.86;100.00;100079.38;10372645;28;20054;-72
2022/10/10 02:30:29;;;;;;;18.08;4.07;;;;;;;15.47;100.00;100033.69;10372134;28;20049;-71
2022/10/10 02:35:35;;;;;;;14.43;4.00;;;;;;;15.77;100.00;100086.81;10383614;28;20033;-72
2022/10/10 02:40:37;;;;;;;12.25;3.78;;;;;;;15.55;100.00;100064.75;10413217;28;20041;-73
2022/10/10 02:45:39;;;;;;;14.90;5.40;;;;;;;15.33;100.00;100026.69;10413266;28;20037;-72
2022/10/10 02:50:40;;;;;;;15.05;5.10;;;;;;;15.81;100.00;100108.63;10412547;28;20046;-73
2022/10/10 02:55:41;;;;;;;25.25;5.57;;;;;;;15.85;100.00;100115.22;10413437;28;20033;-72
2022/10/10 03:00:41;;;;;;;21.38;4.57;;;;;;;15.36;100.00;100034.28;10411365;28;20493;-72
2022/10/10 03:05:42;;;;;;;18.55;4.57;;;;;;;14.87;100.00;99952.63;10407633;28;20034;-72
2022/10/10 03:11:00;;;;;;;10.82;3.83;;;;;;;15.81;100.00;100103.28;10405611;28;20069;-73
2022/10/10 03:16:01;;;;;;;21.92;5.30;;;;;;;15.38;100.00;100037.59;10372001;28;20409;-72
2022/10/10 03:21:02;;;;;;;16.23;4.43;;;;;;;15.84;100.00;100116.25;10372086;28;20124;-72
2022/10/10 03:26:03;;;;;;;22.58;6.30;;;;;;;15.88;100.00;100120.16;10370439;28;20062;-73
2022/10/10 03:31:04;;;;;;;15.40;4.63;;;;;;;15.73;100.00;100093.59;10371189;28;20057;-72
2022/10/10 03:36:05;;;;;;;18.40;5.13;;;;;;;15.49;100.00;100063.72;10370924;28;20409;-75
2022/10/10 03:41:06;;;;;;;13.02;4.03;;;;;;;14.86;100.00;99968.84;10371110;28;20092;-73
2022/10/10 03:46:07;;;;;;;24.30;5.78;;;;;;;15.10;100.00;100002.19;10372264;28;20038;-72
2022/10/10 03:51:08;;;;;;;21.35;6.75;;;;;;;16.08;100.00;100166.50;10378468;28;20050;-72
2022/10/10 03:56:09;;;;;;;25.20;7.22;;;;;;;15.51;100.00;100077.72;10377558;28;20046;-72
2022/10/10 04:01:10;;;;;;;38.20;7.75;;;;;;;16.13;100.00;100171.25;10391422;28;20049;-73
2022/10/10 04:06:10;;;;;;;36.42;6.40;;;;;;;15.97;100.00;100154.59;10397700;28;20115;-71
2022/10/10 04:11:11;;;;;;;24.77;7.70;;;;;;;16.11;100.00;100167.94;10418132;28;20041;-71
2022/10/10 04:16:12;;;;;;;27.35;8.20;;;;;;;15.82;100.00;100124.47;10417607;28;20045;-73
2022/10/10 04:21:13;;;;;;;31.08;8.55;;;;;;;16.06;100.00;100165.06;10418040;28;20163;-73
2022/10/10 04:26:14;;;;;;;25.90;8.10;;;;;;;16.27;100.00;100178.22;10416650;28;20057;-70
2022/10/10 04:31:15;;;;;;;35.20;9.05;;;;;;;15.73;100.00;100097.13;10411131;28;20042;-71
2022/10/10 04:36:15;;;;;;;25.55;8.23;;;;;;;16.28;100.00;100187.09;10390033;28;20049;-74
2022/10/10 04:41:16;;;;;;;23.67;7.65;;;;;;;15.66;100.00;100100.78;10375674;28;20034;-72
2022/10/10 04:46:17;;;;;;;28.35;6.97;;;;;;;16.19;100.00;100186.50;10379939;28;20061;-73
2022/10/10 04:51:18;;;;;;;28.20;8.00;;;;;;;16.02;100.00;100164.66;10392649;28;20474;-73
2022/10/10 04:56:19;;;;;;;28.45;8.82;;;;;;;16.25;100.00;100212.47;10375677;28;20511;-74
2022/10/10 05:01:20;;;;;;;23.65;7.97;;;;;;;15.48;100.00;100056.72;10374281;28;20046;-75
2022/10/10 05:06:20;;;;;;;32.15;8.07;;;;;;;16.40;100.00;100183.56;10375678;28;20038;-73
2022/10/10 05:11:21;;;;;;;14.70;7.40;;;;;;;16.47;100.00;100177.34;10374759;28;20413;-74
2022/10/10 05:16:22;;;;;;;18.02;7.78;;;;;;;17.28;100.00;100217.91;10375213;28;20041;-74
2022/10/10 05:21:24;;;;;;;17.67;7.88;;;;;;;17.30;100.00;100146.03;10374902;28;20137;-75
2022/10/10 05:26:25;;;;;;;24.17;7.45;;;;;;;18.05;100.00;100199.00;10375887;28;20058;-74
2022/10/10 05:31:27;;;;;;;14.35;7.60;;;;;;;17.64;100.00;100100.94;10374416;28;20049;-74
2022/10/10 05:36:28;;;;;;;15.18;6.82;;;;;;;18.45;100.00;100212.88;10373663;28;20129;-73
2022/10/10 05:41:29;;;;;;;22.05;7.82;;;;;;;18.49;100.00;100202.50;10373540;28;20248;-74
2022/10/10 05:46:30;;;;;;;14.23;7.18;;;;;;;18.62;100.00;100185.41;10374407;28;20052;-74
2022/10/10 05:51:31;;;;;;;14.93;7.18;;;;;;;18.65;100.00;100141.91;10372579;28;20565;-74
2022/10/10 05:56:31;;;;;;;16.02;7.03;;;;;;;19.02;100.00;100161.50;10373979;28;20140;-74
2022/10/10 06:01:32;;;;;;;18.60;8.60;;;;;;;19.36;100.00;100178.06;10373407;28;20050;-74
2022/10/10 06:06:33;;;;;;;13.32;7.13;;;;;;;19.82;100.00;100207.00;10373548;28;20046;-74
2022/10/10 06:11:35;;;;;;;14.10;8.43;;;;;;;20.18;98.87;100190.84;10373192;28;20470;-73
2022/10/10 06:16:38;;;;;;;10.75;8.02;;;;;;;20.24;97.90;100193.41;10373062;28;20048;-73
2022/10/10 06:21:38;;;;;;;17.13;8.07;;;;;;;19.54;96.21;100083.69;10372421;28;20049;-74
2022/10/10 06:26:39;;;;;;;19.33;7.95;;;;;;;19.63;94.52;100099.50;10373056;28;20061;-73
2022/10/10 06:31:57;;;;;;;14.10;8.07;;;;;;;19.37;95.25;100093.50;10531687;27;20791;-74
2022/10/10 06:36:58;;;;;;;10.65;7.18;;;;;;;19.07;94.91;100064.75;10531272;28;20094;-72
2022/10/10 06:41:58;;;;;;;12.13;7.72;;;;;;;19.90;94.43;100168.09;10531848;28;20039;-72
2022/10/10 06:46:59;;;;;;;11.43;7.00;;;;;;;20.28;93.50;100182.97;10532100;28;20055;-72
2022/10/10 06:52:00;;;;;;;14.20;6.78;;;;;;;19.73;90.84;100078.19;10532011;28;20047;-72
2022/10/10 06:57:01;;;;;;;10.02;6.65;;;;;;;20.59;90.04;100178.28;10532019;28;20028;-71
2022/10/10 07:02:02;;;;;;;10.65;6.60;;;;;;;20.56;88.61;100163.38;10531547;28;20048;-71
2022/10/10 07:07:02;;;;;;;9.70;6.20;;;;;;;20.35;88.50;100151.31;10531306;28;20054;-72
2022/10/10 07:12:03;;;;;;;9.20;6.60;;;;;;;20.02;88.70;100115.00;10530662;28;20114;-72
2022/10/10 07:17:04;;;;;;;8.10;6.07;;;;;;;20.24;89.21;100176.41;10530292;28;20123;-73
2022/10/10 07:22:05;;;;;;;11.13;7.18;;;;;;;20.39;89.08;100179.44;10530296;28;20044;-71
2022/10/10 07:27:05;;;;;;;9.52;6.60;;;;;;;20.42;87.81;100152.00;10529775;28;20047;-72
2022/10/10 07:32:06;;;;;;;9.43;7.45;;;;;;;19.89;86.97;100041.63;10530027;28;20156;-74
2022/10/10 07:37:07;;;;;;;9.27;6.72;;;;;;;20.12;86.86;100054.25;10529017;28;20120;-73
2022/10/10 07:42:08;;;;;;;8.30;6.10;;;;;;;20.65;85.74;100101.75;10508806;28;20139;-72
2022/10/10 07:47:09;;;;;;;11.55;6.38;;;;;;;20.12;84.92;99984.94;10500070;28;20049;-72
2022/10/10 07:52:10;;;;;;;11.25;5.43;;;;;;;20.95;84.49;100118.53;10501746;28;20411;-72
2022/10/10 07:57:10;;;;;;;11.40;7.47;;;;;;;21.17;83.31;100105.13;10501634;28;20511;-72
2022/10/10 08:02:11;;;;;;;11.20;6.20;;;;;;;20.89;82.75;100029.59;10501034;28;20032;-72
2022/10/10 08:07:12;;;;;;;8.18;5.57;;;;;;;21.33;82.38;100075.69;10500066;28;20050;-72
2022/10/10 08:12:13;;;;;;;6.85;4.88;;;;;;;21.83;81.53;100145.97;10500549;28;20113;-72
2022/10/10 08:17:13;;;;;;;7.38;4.47;;;;;;;21.80;79.19;100081.56;10499804;28;20123;-74
2022/10/10 08:22:14;;;;;;;8.00;4.65;;;;;;;22.62;78.36;100146.81;10499311;28;20036;-75
2022/10/10 08:27:16;;;;;;;7.38;4.45;;;;;;;22.62;77.65;100141.41;10499159;28;20483;-74
2022/10/10 08:32:17;;;;;;;7.70;3.50;;;;;;;22.53;75.46;100084.19;10500302;28;20071;-71
2022/10/10 08:37:18;;;;;;;4.65;3.35;;;;;;;22.55;74.53;100022.47;10497452;28;20040;-71
2022/10/10 08:42:42;;;;;;;4.97;3.30;;;;;;;23.37;71.14;100120.81;10499062;28;20041;-72
2022/10/10 08:48:00;;;;;;;9.15;3.70;;;;;;;23.08;70.21;100072.31;10499055;28;20123;-73
2022/10/10 08:53:37;;;;;;;4.13;2.50;;;;;;;23.42;71.59;100102.69;10497842;28;20055;-71
2022/10/10 08:58:44;;;;;;;14.63;2.33;;;;;;;23.60;70.28;100096.06;10497276;28;20500;-71
2022/10/10 09:03:50;;;;;;;6.63;2.03;;;;;;;23.56;68.61;100089.50;10497080;28;20518;-71
2022/10/10 09:08:59;;;;;;;6.95;2.53;;;;;;;23.81;66.46;100077.22;10497191;28;20044;-72
2022/10/10 09:14:13;;;;;;;7.53;2.20;;;;;;;24.00;64.57;100048.59;10496329;28;20040;-72
2022/10/10 09:19:23;;;;;;;6.70;2.00;;;;;;;24.24;63.96;100108.66;10496633;28;20051;-74
2022/10/10 09:24:36;;;;;;;3.55;1.63;;;;;;;23.88;62.81;100005.38;10496613;28;20040;-72
2022/10/10 09:29:43;;;;;;;4.45;1.90;;;;;;;24.22;62.87;100040.25;10497660;28;20461;-71
2022/10/10 09:34:53;;;;;;;7.03;2.38;;;;;;;24.95;61.10;100105.41;10496815;28;20044;-75
2022/10/10 09:40:13;;;;;;;3.38;1.80;;;;;;;25.02;58.91;100097.81;10497592;28;20051;-75
2022/10/10 09:45:29;;;;;;;4.00;2.17;;;;;;;24.84;58.87;100111.91;10497533;28;20499;-76
2022/10/10 09:50:30;;;;;;;6.82;2.50;;;;;;;24.73;60.03;100097.47;10496181;28;20048;-71
2022/10/10 09:55:37;;;;;;;4.97;1.80;;;;;;;24.98;56.79;100102.16;10494831;28;20384;-72
2022/10/10 10:00:37;;;;;;;4.00;2.03;;;;;;;25.20;59.12;100096.50;10495849;28;20037;-74
2022/10/10 10:05:42;;;;;;;6.05;2.40;;;;;;;25.07;58.06;100067.13;10496069;28;20048;-74
2022/10/10 10:10:43;;;;;;;8.52;2.00;;;;;;;24.80;59.15;100060.00;10495631;28;20040;-72
2022/10/10 10:15:51;;;;;;;3.30;1.95;;;;;;;23.67;57.81;99923.09;10495927;28;20046;-72
2022/10/10 10:21:12;;;;;;;5.55;2.38;;;;;;;24.88;58.37;100090.44;10496433;28;20036;-71
2022/10/10 10:26:15;;;;;;;5.90;2.15;;;;;;;25.09;56.72;100086.66;10494882;28;20534;-72
2022/10/10 10:31:37;;;;;;;4.07;1.73;;;;;;;24.69;56.01;100006.75;10495859;28;20141;-72
2022/10/10 10:36:53;;;;;;;4.57;1.90;;;;;;;25.10;55.68;100085.59;10495638;28;20127;-73
2022/10/10 10:42:21;;;;;;;6.07;2.05;;;;;;;25.08;55.56;100084.22;10495613;28;20041;-74
2022/10/10 10:47:30;;;;;;;5.43;1.85;;;;;;;25.00;54.57;100056.47;10495838;28;20123;-72
2022/10/10 10:52:49;;;;;;;9.52;1.95;;;;;;;25.19;54.46;100085.91;10494544;28;20492;-71
2022/10/10 10:58:10;;;;;;;4.63;2.15;;;;;;;24.97;55.03;100084.19;10495705;28;20546;-71
2022/10/10 11:03:31;;;;;;;3.00;1.70;;;;;;;25.02;54.26;100086.13;10495247;28;20094;-72
2022/10/10 11:08:51;;;;;;;4.68;2.00;;;;;;;25.04;55.27;100041.28;10494461;28;20048;-72
2022/10/10 11:14:05;;;;;;;10.20;2.60;;;;;;;24.79;53.71;99987.72;10494809;28;20082;-74
2022/10/10 11:19:33;;;;;;;3.28;1.77;;;;;;;25.66;53.35;100082.06;10503146;28;20034;-74
2022/10/10 11:24:43;;;;;;;6.57;2.22;;;;;;;24.30;52.41;99889.66;10503035;28;20036;-72
2022/10/10 11:29:58;;;;;;;6.80;1.90;;;;;;;25.51;53.54;100089.13;10502259;28;20063;-73
2022/10/10 11:35:32;;;;;;;5.25;2.10;;;;;;;25.51;53.00;100091.03;10502017;28;20067;-72
2022/10/10 11:41:05;;;;;;;10.30;2.28;;;;;;;25.37;53.24;100093.50;10502334;28;20043;-71
2022/10/10 11:46:32;;;;;;;15.65;6.15;;;;;;;25.35;53.83;100089.44;10498422;28;20462;-76
2022/10/10 11:51:48;;;;;;;3.20;2.05;;;;;;;24.26;52.56;99938.22;10500524;28;20043;-73
2022/10/10 11:56:53;;;;;;;5.70;1.70;;;;;;;25.01;53.35;100070.91;10501217;28;20044;-75
2022/10/10 12:02:00;;;;;;;3.47;1.80;;;;;;;24.68;52.53;100055.88;10500905;28;20044;-80
2022/10/10 12:07:10;;;;;;;6.00;2.03;;;;;;;24.17;54.46;100018.53;10500399;28;20043;-71
2022/10/10 12:12:18;;;;;;;2.97;1.70;;;;;;;24.29;53.54;100046.28;10500811;28;20040;-71
2022/10/10 12:17:26;;;;;;;3.28;1.90;;;;;;;24.19;53.07;100002.78;10499961;28;20123;-72
2022/10/10 12:22:28;;;;;;;4.93;1.70;;;;;;;24.63;52.96;100072.19;10499770;28;20083;-71
2022/10/10 12:28:04;;;;;;;4.00;1.67;;;;;;;24.70;51.98;100105.34;10498657;28;21015;-75
2022/10/10 12:33:19;;;;;;;3.58;1.42;;;;;;;24.47;52.68;100103.91;10489586;28;20052;-80
2022/10/10 12:38:24;;;;;;;3.22;1.35;;;;;;;24.30;52.66;100117.66;10499176;28;20079;-72
2022/10/10 12:43:44;;;;;;;3.55;1.55;;;;;;;24.10;53.11;100089.31;10494283;28;20036;-78
2022/10/10 12:49:16;;;;;;;2.75;1.80;;;;;;;24.19;53.39;100114.06;10465415;28;20048;-69
2022/10/10 12:54:24;;;;;;;4.78;2.10;;;;;;;23.69;54.31;100094.53;10471507;28;20127;-70
2022/10/10 12:59:25;;;;;;;2.88;1.80;;;;;;;23.37;55.65;100104.56;10457353;28;20041;-69
2022/10/10 13:04:27;;;;;;;3.47;1.65;;;;;;;22.33;56.57;99981.91;10468415;28;20120;-71
2022/10/10 13:09:32;;;;;;;4.60;1.70;;;;;;;22.98;57.66;100129.13;10457226;28;20081;-70
2022/10/10 13:14:44;;;;;;;3.53;1.70;;;;;;;22.67;58.38;100098.13;10467900;28;20030;-70
2022/10/10 13:19:45;;;;;;;8.93;3.17;;;;;;;22.17;59.07;100028.81;10526379;28;20079;-69
2022/10/10 13:24:48;;;;;;;7.53;1.92;;;;;;;22.62;59.96;100119.75;10496482;28;20072;-72
2022/10/10 13:29:49;;;;;;;3.80;1.90;;;;;;;22.58;60.56;100124.03;10489075;28;20064;-70
2022/10/10 13:35:00;;;;;;;5.65;1.80;;;;;;;22.31;61.24;100103.94;10478340;28;20130;-69
2022/10/10 13:40:01;;;;;;;2.92;1.60;;;;;;;22.25;61.20;100118.47;10496367;28;20041;-69
2022/10/10 13:45:37;;;;;;;5.95;1.90;;;;;;;22.32;62.38;100129.13;10496897;28;20135;-70
2022/10/10 13:50:44;;;;;;;72.05;5.70;;;;;;;22.16;66.94;100130.75;10495348;28;20101;-70
2022/10/10 13:55:44;;;;;;;50.50;4.65;;;;;;;21.99;66.06;100122.69;10454734;28;20080;-71
2022/10/10 14:00:55;;;;;;;53.00;5.05;;;;;;;21.71;68.53;100103.88;10456380;28;20067;-70
2022/10/10 14:05:56;;;;;;;7.32;2.40;;;;;;;21.61;67.44;100116.16;10475245;28;20057;-67
2022/10/10 14:11:07;;;;;;;26.13;4.18;;;;;;;21.47;70.92;100105.94;10496227;28;20036;-68
2022/10/10 14:16:17;;;;;;;36.97;4.57;;;;;;;21.25;69.89;100085.03;10486630;28;20045;-68
2022/10/10 14:21:19;;;;;;;37.47;6.47;;;;;;;21.26;70.69;100120.94;10453924;28;20090;-69
2022/10/10 14:26:20;;;;;;;39.58;5.18;;;;;;;21.02;72.11;100118.38;10471638;28;20048;-68
2022/10/10 14:31:21;;;;;;;28.95;5.15;;;;;;;21.01;73.04;100134.84;10494589;28;20052;-66
2022/10/10 14:36:22;;;;;;;28.75;5.00;;;;;;;20.85;74.42;100129.16;10495169;28;20177;-67
2022/10/10 14:41:23;;;;;;;41.78;6.72;;;;;;;20.73;75.69;100139.16;10468077;28;20045;-70
2022/10/10 14:46:24;;;;;;;35.72;6.70;;;;;;;20.69;76.66;100152.31;10479407;28;20076;-67
2022/10/10 14:51:24;;;;;;;36.05;13.93;;;;;;;20.63;76.90;100157.84;10466705;28;20041;-68
2022/10/10 14:56:25;;;;;;;33.05;10.75;;;;;;;20.58;78.00;100165.81;10482274;28;20488;-70
2022/10/10 15:01:26;;;;;;;23.80;7.68;;;;;;;19.94;78.98;100084.88;10503430;28;20045;-68
2022/10/10 15:06:27;;;;;;;17.77;6.55;;;;;;;20.41;80.32;100177.34;10502724;28;20039;-68
2022/10/10 15:11:27;;;;;;;18.45;7.18;;;;;;;20.38;81.02;100187.78;10488033;28;20068;-68
2022/10/10 15:16:28;;;;;;;24.90;9.27;;;;;;;20.32;81.17;100194.94;10493585;28;20040;-68
2022/10/10 15:21:29;;;;;;;20.92;8.48;;;;;;;20.28;81.20;100220.72;10501825;28;20086;-68
2022/10/10 15:26:30;;;;;;;8.15;4.53;;;;;;;19.91;83.47;100239.81;10503503;28;20032;-71
2022/10/10 15:31:31;;;;;;;10.32;4.57;;;;;;;19.46;87.38;100240.25;10500729;28;20414;-69
2022/10/10 15:36:32;;;;;;;6.45;3.10;;;;;;;18.90;90.82;100258.34;10472312;28;20420;-71
2022/10/10 15:41:33;;;;;;;5.93;3.97;;;;;;;18.57;94.39;100284.78;10479113;28;20097;-71
2022/10/10 15:46:33;;;;;;;12.27;5.10;;;;;;;17.85;97.30;100207.22;10477112;28;20041;-70
2022/10/10 15:51:34;;;;;;;8.65;3.38;;;;;;;18.02;99.98;100282.78;10475365;28;20147;-69
2022/10/10 15:56:35;;;;;;;9.35;3.20;;;;;;;18.02;100.00;100307.78;10464827;28;20047;-74
2022/10/10 16:01:36;;;;;;;8.13;3.08;;;;;;;17.72;100.00;100259.19;10469265;28;20060;-68
2022/10/10 16:06:37;;;;;;;8.73;3.88;;;;;;;17.88;100.00;100300.03;10465151;28;20032;-70
2022/10/10 16:11:37;;;;;;;8.50;3.67;;;;;;;17.82;100.00;100304.41;10471047;28;20045;-69
2022/10/10 16:16:38;;;;;;;6.50;3.78;;;;;;;17.74;100.00;100315.41;10467774;28;20042;-69
2022/10/10 16:21:39;;;;;;;7.75;4.20;;;;;;;17.50;100.00;100279.34;10469419;28;20118;-68
2022/10/10 16:26:40;;;;;;;8.63;4.15;;;;;;;17.70;100.00;100331.09;10476858;28;20033;-69
2022/10/10 16:31:41;;;;;;;6.68;4.13;;;;;;;17.10;100.00;100226.66;10478114;28;20603;-71
2022/10/10 16:36:42;;;;;;;8.95;4.18;;;;;;;17.71;100.00;100331.91;10479754;28;20068;-70
2022/10/10 16:41:43;;;;;;;6.13;4.18;;;;;;;17.57;100.00;100321.25;10476315;28;20558;-69
2022/10/10 16:46:44;;;;;;;9.10;3.90;;;;;;;17.73;100.00;100338.72;10475768;28;20037;-70
2022/10/10 16:51:44;;;;;;;7.15;3.97;;;;;;;17.42;100.00;100303.78;10472975;28;20079;-70
2022/10/10 16:56:45;;;;;;;7.28;4.40;;;;;;;17.76;100.00;100369.72;10458920;28;20033;-71
2022/10/10 17:01:46;;;;;;;7.03;4.30;;;;;;;17.68;100.00;100360.06;10471938;28;20044;-69
2022/10/10 17:06:47;;;;;;;6.75;4.18;;;;;;;17.72;100.00;100374.69;10474035;28;20496;-69
2022/10/10 17:11:48;;;;;;;7.63;4.22;;;;;;;17.12;100.00;100288.19;10475444;28;20045;-69
2022/10/10 17:16:49;;;;;;;7.93;4.72;;;;;;;17.51;100.00;100357.03;10473968;28;20040;-69
2022/10/10 17:21:50;;;;;;;7.22;4.40;;;;;;;17.61;100.00;100394.16;10471124;28;20037;-68
2022/10/10 17:26:50;;;;;;;8.60;5.30;;;;;;;17.53;100.00;100381.00;10472445;28;20045;-68
2022/10/10 17:31:51;;;;;;;10.73;4.82;;;;;;;16.93;100.00;100292.59;10455312;28;20064;-68
2022/10/10 17:36:53;;;;;;;10.13;5.63;;;;;;;17.34;100.00;100364.72;10456350;28;20436;-68
2022/10/10 17:41:53;;;;;;;12.25;5.80;;;;;;;17.47;100.00;100408.69;10455140;28;20424;-68
2022/10/10 17:46:54;;;;;;;7.30;4.28;;;;;;;17.39;100.00;100408.94;10455633;28;20037;-67
2022/10/10 17:51:55;;;;;;;10.07;4.80;;;;;;;17.40;100.00;100418.63;10455107;28;20037;-68
2022/10/10 17:56:55;;;;;;;6.97;4.68;;;;;;;17.37;100.00;100427.09;10455745;28;20408;-68
2022/10/10 18:01:56;;;;;;;12.48;5.55;;;;;;;16.83;100.00;100349.38;10465167;28;20037;-68
2022/10/10 18:06:57;;;;;;;7.95;3.42;;;;;;;16.77;100.00;100352.88;10454505;28;20094;-68
2022/10/10 18:11:58;;;;;;;8.88;2.97;;;;;;;16.67;100.00;100355.97;10454787;28;20045;-68
2022/10/10 18:16:59;;;;;;;6.90;2.72;;;;;;;17.03;100.00;100429.84;10454454;28;20040;-68
2022/10/10 18:21:59;;;;;;;6.30;2.78;;;;;;;16.54;100.00;100355.13;10454038;28;20033;-68
2022/10/10 18:27:00;;;;;;;6.60;3.22;;;;;;;16.77;100.00;100419.94;10453744;28;20041;-68
2022/10/10 18:32:01;;;;;;;8.65;2.85;;;;;;;17.00;100.00;100473.22;10486180;28;20067;-68
2022/10/10 18:37:03;;;;;;;8.02;3.05;;;;;;;16.83;100.00;100472.78;10495948;28;20058;-70
2022/10/10 18:42:04;;;;;;;10.98;5.10;;;;;;;16.77;100.00;100503.13;10495721;28;20420;-67
2022/10/10 18:47:05;;;;;;;9.48;5.47;;;;;;;16.07;100.00;100415.94;10496073;28;20515;-71
2022/10/10 18:52:08;;;;;;;11.70;6.13;;;;;;;16.53;100.00;100514.41;10494776;28;20052;-68
2022/10/10 18:57:09;;;;;;;10.77;7.67;;;;;;;16.28;100.00;100488.16;10495491;28;20035;-67
2022/10/10 19:02:10;;;;;;;14.52;10.05;;;;;;;15.59;100.00;100407.91;10494931;28;20028;-67
2022/10/10 19:07:11;;;;;;;15.68;10.93;;;;;;;15.95;100.00;100512.13;10494593;28;20036;-67
2022/10/10 19:12:12;;;;;;;14.60;11.23;;;;;;;15.86;100.00;100527.56;10494571;28;20056;-68
2022/10/10 19:17:13;;;;;;;22.25;12.02;;;;;;;15.22;100.00;100426.00;10494211;28;20063;-67
2022/10/10 19:22:14;;;;;;;16.45;12.23;;;;;;;15.13;100.00;100409.28;10494891;28;20044;-67
2022/10/10 19:27:14;;;;;;;17.70;11.77;;;;;;;15.71;100.00;100500.88;10494492;28;20083;-67
2022/10/10 19:32:15;;;;;;;13.20;11.65;;;;;;;15.79;100.00;100515.13;10494078;28;20514;-67
2022/10/10 19:37:18;;;;;;;15.25;12.45;;;;;;;15.84;100.00;100521.56;10497246;28;20056;-68
2022/10/10 19:42:19;;;;;;;16.02;12.32;;;;;;;15.88;100.00;100532.69;10501794;28;20064;-68
2022/10/10 19:47:19;;;;;;;18.40;12.45;;;;;;;15.99;100.00;100529.47;10501181;28;20547;-68
2022/10/10 19:52:21;;;;;;;14.30;11.05;;;;;;;16.06;100.00;100530.31;10500783;28;20044;-68
2022/10/10 19:57:22;;;;;;;16.95;10.38;;;;;;;16.11;100.00;100527.88;10501409;28;20492;-68
2022/10/10 20:02:23;;;;;;;20.27;11.13;;;;;;;16.06;100.00;100513.41;10501086;28;20086;-69
2022/10/10 20:07:24;;;;;;;24.45;12.55;;;;;;;16.14;100.00;100526.63;10501184;28;20071;-67
2022/10/10 20:12:24;;;;;;;18.20;12.93;;;;;;;16.14;100.00;100522.09;10501293;28;20067;-67
2022/10/10 20:17:26;;;;;;;18.90;12.60;;;;;;;16.15;100.00;100545.22;10499918;28;20101;-68
2022/10/10 20:22:27;;;;;;;16.98;12.80;;;;;;;16.13;100.00;100528.50;10501177;28;20040;-67
2022/10/10 20:27:28;;;;;;;16.52;13.50;;;;;;;14.95;100.00;100350.91;10500704;28;20044;-68
2022/10/10 20:32:29;;;;;;;21.73;14.48;;;;;;;16.13;100.00;100539.22;10479585;28;20041;-68
2022/10/10 20:37:32;;;;;;;18.92;15.02;;;;;;;15.40;100.00;100418.28;10458899;28;20037;-68
2022/10/10 20:42:33;;;;;;;22.45;12.57;;;;;;;16.05;100.00;100525.16;10458350;28;20040;-68
2022/10/10 20:47:33;;;;;;;18.38;13.70;;;;;;;16.18;100.00;100544.81;10458504;28;20127;-68
2022/10/10 20:52:34;;;;;;;20.80;14.70;;;;;;;15.57;100.00;100439.41;10458047;28;20037;-68
2022/10/10 20:57:35;;;;;;;17.40;14.30;;;;;;;15.52;100.00;100439.97;10455930;28;20044;-68
2022/10/10 21:02:36;;;;;;;22.17;16.52;;;;;;;16.06;100.00;100522.25;10468551;28;20040;-68
2022/10/10 21:07:37;;;;;;;18.35;14.55;;;;;;;16.05;100.00;100523.31;10456503;28;20408;-68
2022/10/10 21:12:37;;;;;;;18.25;14.13;;;;;;;16.05;100.00;100527.84;10457615;28;20477;-68
2022/10/10 21:17:38;;;;;;;22.42;15.07;;;;;;;16.05;100.00;100525.97;10456353;28;20068;-68
2022/10/10 21:22:39;;;;;;;21.52;16.55;;;;;;;16.04;100.00;100528.88;10456542;28;20049;-68
2022/10/10 21:27:40;;;;;;;19.23;14.73;;;;;;;16.05;100.00;100528.66;10456366;28;20151;-68
2022/10/10 21:32:41;;;;;;;17.40;13.95;;;;;;;15.39;100.00;100442.59;10456533;28;20175;-68
2022/10/10 21:37:44;;;;;;;15.82;13.75;;;;;;;15.81;100.00;100518.44;10455398;28;20056;-68
2022/10/10 21:42:45;;;;;;;18.15;14.68;;;;;;;16.07;100.00;100557.97;10456052;28;20041;-68
2022/10/10 21:47:45;;;;;;;15.82;13.95;;;;;;;15.98;100.00;100547.41;10454880;28;20120;-68
2022/10/10 21:52:46;;;;;;;17.30;14.02;;;;;;;15.87;100.00;100526.50;10454498;28;20048;-68
2022/10/10 21:57:47;;;;;;;17.35;13.32;;;;;;;15.95;100.00;100538.94;10456394;28;20041;-68
2022/10/10 22:02:48;;;;;;;21.27;13.73;;;;;;;15.87;100.00;100536.41;10463869;28;20484;-68
2022/10/10 22:07:49;;;;;;;17.63;13.43;;;;;;;15.77;100.00;100552.84;10454446;28;20063;-68
2022/10/10 22:12:50;;;;;;;17.15;12.38;;;;;;;15.68;100.00;100564.75;10454336;28;20420;-69
2022/10/10 22:17:51;;;;;;;16.38;12.50;;;;;;;15.56;100.00;100563.59;10454273;28;20040;-68
2022/10/10 22:22:52;;;;;;;14.15;10.90;;;;;;;15.44;100.00;100572.16;10454165;28;20053;-68
2022/10/10 22:27:53;;;;;;;15.68;11.75;;;;;;;15.27;100.00;100570.78;10454800;28;20508;-68
2022/10/10 22:32:53;;;;;;;13.65;11.65;;;;;;;15.18;100.00;100588.81;10453250;28;20044;-68
2022/10/10 22:37:54;;;;;;;14.52;10.23;;;;;;;15.07;100.00;100583.97;10454434;28;20047;-69
2022/10/10 22:42:55;;;;;;;15.27;10.07;;;;;;;15.01;100.00;100576.72;10454830;28;20047;-68
2022/10/10 22:47:56;;;;;;;17.58;12.05;;;;;;;14.73;100.00;100555.25;10453924;28;20041;-69
2022/10/10 22:52:57;;;;;;;17.98;11.38;;;;;;;14.82;100.00;100586.19;10453009;28;20041;-69
2022/10/10 22:57:58;;;;;;;13.88;10.25;;;;;;;14.67;100.00;100550.66;10454982;28;20040;-68